sensor_id;sensor_type;location;lat;lon;timestamp;temperature;humidity
15127;DHT22;7664;52.008;4.748;2022-07-17T00:00:40;16.40;99.90
15127;DHT22;7664;52.008;4.748;2022-07-17T00:03:09;16.40;99.90
15127;DHT22;7664;52.008;4.748;2022-07-17T00:05:37;16.40;99.90
15127;DHT22;7664;52.008;4.748;2022-07-17T00:08:08;16.30;99.90
15127;DHT22;7664;52.008;4.748;2022-07-17T00:10:38;16.30;99.90
15127;DHT22;7664;52.008;4.748;2022-07-17T00:13:07;16.30;99.90
15127;DHT22;7664;52.008;4.748;2022-07-17T00:15:36;16.30;99.90
15127;DHT22;7664;52.008;4.748;2022-07-17T00:18:04;16.20;99.90
15127;DHT22;7664;52.008;4.748;2022-07-17T00:20:34;16.20;99.90
15127;DHT22;7664;52.008;4.748;2022-07-17T00:23:01;16.20;99.90
15127;DHT22;7664;52.008;4.748;2022-07-17T00:25:31;16.20;99.90
15127;DHT22;7664;52.008;4.748;2022-07-17T00:27:59;16.20;99.90
15127;DHT22;7664;52.008;4.748;2022-07-17T00:30:27;16.20;99.90
15127;DHT22;7664;52.008;4.748;2022-07-17T00:32:55;16.10;99.90
15127;DHT22;7664;52.008;4.748;2022-07-17T00:35:23;16.10;99.90
15127;DHT22;7664;52.008;4.748;2022-07-17T00:37:51;16.10;99.90
15127;DHT22;7664;52.008;4.748;2022-07-17T00:40:21;16.10;99.90
15127;DHT22;7664;52.008;4.748;2022-07-17T00:42:52;16.00;99.90
15127;DHT22;7664;52.008;4.748;2022-07-17T00:45:20;16.00;99.90
15127;DHT22;7664;52.008;4.748;2022-07-17T00:47:56;15.90;99.90
15127;DHT22;7664;52.008;4.748;2022-07-17T00:50:29;15.90;99.90
15127;DHT22;7664;52.008;4.748;2022-07-17T00:52:58;15.90;99.90
15127;DHT22;7664;52.008;4.748;2022-07-17T00:55:26;15.90;99.90
15127;DHT22;7664;52.008;4.748;2022-07-17T00:58:13;15.90;99.90
15127;DHT22;7664;52.008;4.748;2022-07-17T01:00:44;15.80;99.90
15127;DHT22;7664;52.008;4.748;2022-07-17T01:03:13;15.80;99.90
15127;DHT22;7664;52.008;4.748;2022-07-17T01:05:41;15.80;99.90
15127;DHT22;7664;52.008;4.748;2022-07-17T01:08:10;15.70;99.90
15127;DHT22;7664;52.008;4.748;2022-07-17T01:10:38;15.70;99.90
15127;DHT22;7664;52.008;4.748;2022-07-17T01:13:06;15.70;99.90
15127;DHT22;7664;52.008;4.748;2022-07-17T01:15:38;15.60;99.90
15127;DHT22;7664;52.008;4.748;2022-07-17T01:18:08;15.60;99.90
15127;DHT22;7664;52.008;4.748;2022-07-17T01:20:39;15.70;99.90
15127;DHT22;7664;52.008;4.748;2022-07-17T01:23:09;15.70;99.90
15127;DHT22;7664;52.008;4.748;2022-07-17T01:25:37;15.60;99.90
15127;DHT22;7664;52.008;4.748;2022-07-17T01:28:05;15.60;99.90
15127;DHT22;7664;52.008;4.748;2022-07-17T01:30:34;15.60;99.90
15127;DHT22;7664;52.008;4.748;2022-07-17T01:33:03;15.50;99.90
15127;DHT22;7664;52.008;4.748;2022-07-17T01:35:31;15.50;99.90
15127;DHT22;7664;52.008;4.748;2022-07-17T01:37:59;15.50;99.90
15127;DHT22;7664;52.008;4.748;2022-07-17T01:40:28;15.40;99.90
15127;DHT22;7664;52.008;4.748;2022-07-17T01:42:56;15.40;99.90
15127;DHT22;7664;52.008;4.748;2022-07-17T01:45:24;15.40;99.90
15127;DHT22;7664;52.008;4.748;2022-07-17T01:47:52;15.40;99.90
15127;DHT22;7664;52.008;4.748;2022-07-17T01:50:20;15.30;99.90
15127;DHT22;7664;52.008;4.748;2022-07-17T01:52:48;15.40;99.90
15127;DHT22;7664;52.008;4.748;2022-07-17T01:55:16;15.40;99.90
15127;DHT22;7664;52.008;4.748;2022-07-17T01:57:45;15.30;99.90
15127;DHT22;7664;52.008;4.748;2022-07-17T02:00:16;15.30;99.90
15127;DHT22;7664;52.008;4.748;2022-07-17T02:02:44;15.20;99.90
15127;DHT22;7664;52.008;4.748;2022-07-17T02:05:12;15.30;99.90
15127;DHT22;7664;52.008;4.748;2022-07-17T02:07:40;15.20;99.90
15127;DHT22;7664;52.008;4.748;2022-07-17T02:10:10;15.10;99.90
15127;DHT22;7664;52.008;4.748;2022-07-17T02:12:41;15.10;99.90
15127;DHT22;7664;52.008;4.748;2022-07-17T02:15:11;15.10;99.90
15127;DHT22;7664;52.008;4.748;2022-07-17T02:17:40;15.10;99.90
15127;DHT22;7664;52.008;4.748;2022-07-17T02:20:09;15.10;99.90
15127;DHT22;7664;52.008;4.748;2022-07-17T02:22:38;15.10;99.90
15127;DHT22;7664;52.008;4.748;2022-07-17T02:25:07;15.20;99.90
15127;DHT22;7664;52.008;4.748;2022-07-17T02:27:36;15.10;99.90
15127;DHT22;7664;52.008;4.748;2022-07-17T02:30:04;15.10;99.90
15127;DHT22;7664;52.008;4.748;2022-07-17T02:32:34;15.10;99.90
15127;DHT22;7664;52.008;4.748;2022-07-17T02:35:03;15.00;99.90
15127;DHT22;7664;52.008;4.748;2022-07-17T02:37:31;15.00;99.90
15127;DHT22;7664;52.008;4.748;2022-07-17T02:39:59;15.00;99.90
15127;DHT22;7664;52.008;4.748;2022-07-17T02:42:28;15.00;99.90
15127;DHT22;7664;52.008;4.748;2022-07-17T02:44:57;15.00;99.90
15127;DHT22;7664;52.008;4.748;2022-07-17T02:47:27;15.00;99.90
15127;DHT22;7664;52.008;4.748;2022-07-17T02:49:57;15.00;99.90
15127;DHT22;7664;52.008;4.748;2022-07-17T02:52:27;14.90;99.90
15127;DHT22;7664;52.008;4.748;2022-07-17T02:54:56;14.90;99.90
15127;DHT22;7664;52.008;4.748;2022-07-17T02:57:24;14.80;99.90
15127;DHT22;7664;52.008;4.748;2022-07-17T02:59:52;14.80;99.90
15127;DHT22;7664;52.008;4.748;2022-07-17T03:02:20;14.80;99.90
15127;DHT22;7664;52.008;4.748;2022-07-17T03:04:47;14.80;99.90
15127;DHT22;7664;52.008;4.748;2022-07-17T03:07:17;14.80;99.90
15127;DHT22;7664;52.008;4.748;2022-07-17T03:09:45;14.80;99.90
15127;DHT22;7664;52.008;4.748;2022-07-17T03:12:13;14.70;99.90
15127;DHT22;7664;52.008;4.748;2022-07-17T03:14:40;14.70;99.90
15127;DHT22;7664;52.008;4.748;2022-07-17T03:17:08;14.70;99.90
15127;DHT22;7664;52.008;4.748;2022-07-17T03:19:36;14.60;99.90
15127;DHT22;7664;52.008;4.748;2022-07-17T03:22:04;14.60;99.90
15127;DHT22;7664;52.008;4.748;2022-07-17T03:24:33;14.60;99.90
15127;DHT22;7664;52.008;4.748;2022-07-17T03:27:01;14.60;99.90
15127;DHT22;7664;52.008;4.748;2022-07-17T03:29:29;14.50;99.90
15127;DHT22;7664;52.008;4.748;2022-07-17T03:31:57;14.50;99.90
15127;DHT22;7664;52.008;4.748;2022-07-17T03:34:25;14.60;99.90
15127;DHT22;7664;52.008;4.748;2022-07-17T03:36:53;14.60;99.90
15127;DHT22;7664;52.008;4.748;2022-07-17T03:39:21;14.50;99.90
15127;DHT22;7664;52.008;4.748;2022-07-17T03:41:50;14.60;99.90
15127;DHT22;7664;52.008;4.748;2022-07-17T03:44:18;14.50;99.90
15127;DHT22;7664;52.008;4.748;2022-07-17T03:46:47;14.50;99.90
15127;DHT22;7664;52.008;4.748;2022-07-17T03:49:16;14.50;99.90
15127;DHT22;7664;52.008;4.748;2022-07-17T03:51:43;14.50;99.90
15127;DHT22;7664;52.008;4.748;2022-07-17T03:54:11;14.50;99.90
15127;DHT22;7664;52.008;4.748;2022-07-17T03:56:39;14.50;99.90
15127;DHT22;7664;52.008;4.748;2022-07-17T03:59:08;14.50;99.90
15127;DHT22;7664;52.008;4.748;2022-07-17T04:01:36;14.50;99.90
15127;DHT22;7664;52.008;4.748;2022-07-17T04:04:04;14.50;99.90
15127;DHT22;7664;52.008;4.748;2022-07-17T04:06:32;14.60;99.90
15127;DHT22;7664;52.008;4.748;2022-07-17T04:09:00;14.70;99.90
15127;DHT22;7664;52.008;4.748;2022-07-17T04:11:28;14.70;99.90
15127;DHT22;7664;52.008;4.748;2022-07-17T04:13:56;14.80;99.90
15127;DHT22;7664;52.008;4.748;2022-07-17T04:16:26;14.80;99.90
15127;DHT22;7664;52.008;4.748;2022-07-17T04:18:54;14.80;99.90
15127;DHT22;7664;52.008;4.748;2022-07-17T04:21:22;14.80;99.90
15127;DHT22;7664;52.008;4.748;2022-07-17T04:23:50;14.80;99.90
15127;DHT22;7664;52.008;4.748;2022-07-17T04:26:18;14.80;99.90
15127;DHT22;7664;52.008;4.748;2022-07-17T04:28:46;14.80;99.90
15127;DHT22;7664;52.008;4.748;2022-07-17T04:31:14;14.80;99.90
15127;DHT22;7664;52.008;4.748;2022-07-17T04:33:43;14.80;99.90
15127;DHT22;7664;52.008;4.748;2022-07-17T04:36:11;14.90;99.90
15127;DHT22;7664;52.008;4.748;2022-07-17T04:38:39;14.90;99.90
15127;DHT22;7664;52.008;4.748;2022-07-17T04:41:07;14.90;99.90
15127;DHT22;7664;52.008;4.748;2022-07-17T04:43:35;14.90;99.90
15127;DHT22;7664;52.008;4.748;2022-07-17T04:46:03;15.00;99.90
15127;DHT22;7664;52.008;4.748;2022-07-17T04:48:31;15.00;99.90
15127;DHT22;7664;52.008;4.748;2022-07-17T04:51:00;15.00;99.90
15127;DHT22;7664;52.008;4.748;2022-07-17T04:53:28;15.00;99.90
15127;DHT22;7664;52.008;4.748;2022-07-17T04:55:57;15.10;99.90
15127;DHT22;7664;52.008;4.748;2022-07-17T04:58:25;15.10;99.90
15127;DHT22;7664;52.008;4.748;2022-07-17T05:00:53;15.10;99.90
15127;DHT22;7664;52.008;4.748;2022-07-17T05:03:21;15.20;99.90
15127;DHT22;7664;52.008;4.748;2022-07-17T05:05:49;15.20;99.90
15127;DHT22;7664;52.008;4.748;2022-07-17T05:08:18;15.20;99.90
15127;DHT22;7664;52.008;4.748;2022-07-17T05:10:46;15.20;99.90
15127;DHT22;7664;52.008;4.748;2022-07-17T05:13:14;15.30;99.90
15127;DHT22;7664;52.008;4.748;2022-07-17T05:15:42;15.30;99.90
15127;DHT22;7664;52.008;4.748;2022-07-17T05:18:10;15.40;99.90
15127;DHT22;7664;52.008;4.748;2022-07-17T05:20:39;15.40;99.90
15127;DHT22;7664;52.008;4.748;2022-07-17T05:23:07;15.50;99.90
15127;DHT22;7664;52.008;4.748;2022-07-17T05:25:36;15.60;99.90
15127;DHT22;7664;52.008;4.748;2022-07-17T05:28:04;15.60;99.90
15127;DHT22;7664;52.008;4.748;2022-07-17T05:30:32;15.70;99.90
15127;DHT22;7664;52.008;4.748;2022-07-17T05:33:00;15.80;99.90
15127;DHT22;7664;52.008;4.748;2022-07-17T05:35:28;16.10;99.90
15127;DHT22;7664;52.008;4.748;2022-07-17T05:37:57;16.40;99.90
15127;DHT22;7664;52.008;4.748;2022-07-17T05:40:25;16.70;99.90
15127;DHT22;7664;52.008;4.748;2022-07-17T05:42:54;17.20;99.90
15127;DHT22;7664;52.008;4.748;2022-07-17T05:45:22;17.80;99.90
15127;DHT22;7664;52.008;4.748;2022-07-17T05:47:50;18.70;99.90
15127;DHT22;7664;52.008;4.748;2022-07-17T05:50:18;19.60;99.90
15127;DHT22;7664;52.008;4.748;2022-07-17T05:52:46;20.50;99.90
15127;DHT22;7664;52.008;4.748;2022-07-17T05:55:14;21.50;99.90
15127;DHT22;7664;52.008;4.748;2022-07-17T05:57:42;22.40;99.90
15127;DHT22;7664;52.008;4.748;2022-07-17T06:00:12;23.40;99.90
15127;DHT22;7664;52.008;4.748;2022-07-17T06:02:40;24.10;99.90
15127;DHT22;7664;52.008;4.748;2022-07-17T06:05:08;24.60;99.90
15127;DHT22;7664;52.008;4.748;2022-07-17T06:07:43;25.00;99.90
15127;DHT22;7664;52.008;4.748;2022-07-17T06:10:11;25.30;98.90
15127;DHT22;7664;52.008;4.748;2022-07-17T06:12:39;25.80;97.40
15127;DHT22;7664;52.008;4.748;2022-07-17T06:15:08;26.20;97.10
15127;DHT22;7664;52.008;4.748;2022-07-17T06:17:40;26.70;92.70
15127;DHT22;7664;52.008;4.748;2022-07-17T06:20:11;27.40;91.50
15127;DHT22;7664;52.008;4.748;2022-07-17T06:22:39;28.00;90.10
15127;DHT22;7664;52.008;4.748;2022-07-17T06:25:08;28.40;90.10
15127;DHT22;7664;52.008;4.748;2022-07-17T06:27:38;28.80;83.90
15127;DHT22;7664;52.008;4.748;2022-07-17T06:30:07;29.10;78.90
15127;DHT22;7664;52.008;4.748;2022-07-17T06:32:36;29.50;79.80
15127;DHT22;7664;52.008;4.748;2022-07-17T06:35:06;29.90;79.80
15127;DHT22;7664;52.008;4.748;2022-07-17T06:37:34;29.80;65.70
15127;DHT22;7664;52.008;4.748;2022-07-17T06:40:04;29.70;71.30
15127;DHT22;7664;52.008;4.748;2022-07-17T06:42:32;29.80;68.40
15127;DHT22;7664;52.008;4.748;2022-07-17T06:45:00;30.10;71.10
15127;DHT22;7664;52.008;4.748;2022-07-17T06:47:28;30.10;65.80
15127;DHT22;7664;52.008;4.748;2022-07-17T06:49:56;30.40;67.60
15127;DHT22;7664;52.008;4.748;2022-07-17T06:52:25;30.70;65.40
15127;DHT22;7664;52.008;4.748;2022-07-17T06:54:56;30.70;58.60
15127;DHT22;7664;52.008;4.748;2022-07-17T06:57:24;31.00;59.80
15127;DHT22;7664;52.008;4.748;2022-07-17T06:59:52;31.30;58.70
15127;DHT22;7664;52.008;4.748;2022-07-17T07:02:20;31.50;56.00
15127;DHT22;7664;52.008;4.748;2022-07-17T07:04:48;31.80;56.80
15127;DHT22;7664;52.008;4.748;2022-07-17T07:07:16;31.80;54.20
15127;DHT22;7664;52.008;4.748;2022-07-17T07:09:46;31.90;52.50
15127;DHT22;7664;52.008;4.748;2022-07-17T07:12:14;31.80;50.20
15127;DHT22;7664;52.008;4.748;2022-07-17T07:14:42;32.00;51.80
15127;DHT22;7664;52.008;4.748;2022-07-17T07:17:10;32.40;50.70
15127;DHT22;7664;52.008;4.748;2022-07-17T07:19:38;32.60;48.70
15127;DHT22;7664;52.008;4.748;2022-07-17T07:22:05;32.70;47.00
15127;DHT22;7664;52.008;4.748;2022-07-17T07:24:33;32.80;44.70
15127;DHT22;7664;52.008;4.748;2022-07-17T07:27:03;32.40;42.80
15127;DHT22;7664;52.008;4.748;2022-07-17T07:29:31;32.00;38.40
15127;DHT22;7664;52.008;4.748;2022-07-17T07:31:59;31.70;40.20
15127;DHT22;7664;52.008;4.748;2022-07-17T07:34:27;31.60;41.30
15127;DHT22;7664;52.008;4.748;2022-07-17T07:36:55;31.30;42.00
15127;DHT22;7664;52.008;4.748;2022-07-17T07:39:23;31.30;41.50
15127;DHT22;7664;52.008;4.748;2022-07-17T07:41:51;31.50;41.00
15127;DHT22;7664;52.008;4.748;2022-07-17T07:44:20;31.50;39.40
15127;DHT22;7664;52.008;4.748;2022-07-17T07:46:57;31.30;37.00
15127;DHT22;7664;52.008;4.748;2022-07-17T07:49:25;31.20;40.00
15127;DHT22;7664;52.008;4.748;2022-07-17T07:51:53;31.50;39.90
15127;DHT22;7664;52.008;4.748;2022-07-17T07:54:30;31.20;37.40
15127;DHT22;7664;52.008;4.748;2022-07-17T07:56:58;31.00;36.70
15127;DHT22;7664;52.008;4.748;2022-07-17T07:59:27;31.00;36.50
15127;DHT22;7664;52.008;4.748;2022-07-17T08:01:55;30.50;35.10
15127;DHT22;7664;52.008;4.748;2022-07-17T08:04:23;30.60;38.00
15127;DHT22;7664;52.008;4.748;2022-07-17T08:06:51;30.90;36.50
15127;DHT22;7664;52.008;4.748;2022-07-17T08:09:20;30.80;37.20
15127;DHT22;7664;52.008;4.748;2022-07-17T08:11:47;30.90;34.60
15127;DHT22;7664;52.008;4.748;2022-07-17T08:14:15;29.90;34.80
15127;DHT22;7664;52.008;4.748;2022-07-17T08:16:45;29.80;35.70
15127;DHT22;7664;52.008;4.748;2022-07-17T08:19:13;29.90;36.20
15127;DHT22;7664;52.008;4.748;2022-07-17T08:21:41;30.20;36.90
15127;DHT22;7664;52.008;4.748;2022-07-17T08:24:09;30.40;38.00
15127;DHT22;7664;52.008;4.748;2022-07-17T08:26:37;30.50;36.90
15127;DHT22;7664;52.008;4.748;2022-07-17T08:29:05;30.20;33.40
15127;DHT22;7664;52.008;4.748;2022-07-17T08:31:33;29.90;34.20
15127;DHT22;7664;52.008;4.748;2022-07-17T08:34:02;29.70;36.40
15127;DHT22;7664;52.008;4.748;2022-07-17T08:36:30;30.10;37.30
15127;DHT22;7664;52.008;4.748;2022-07-17T08:38:58;30.30;36.30
15127;DHT22;7664;52.008;4.748;2022-07-17T08:41:27;29.90;35.00
15127;DHT22;7664;52.008;4.748;2022-07-17T08:43:56;29.90;37.10
15127;DHT22;7664;52.008;4.748;2022-07-17T08:46:24;30.10;35.80
15127;DHT22;7664;52.008;4.748;2022-07-17T08:48:57;30.30;37.00
15127;DHT22;7664;52.008;4.748;2022-07-17T08:51:27;30.40;35.10
15127;DHT22;7664;52.008;4.748;2022-07-17T08:53:57;30.60;34.50
15127;DHT22;7664;52.008;4.748;2022-07-17T08:56:25;30.60;36.00
15127;DHT22;7664;52.008;4.748;2022-07-17T08:58:55;30.70;35.60
15127;DHT22;7664;52.008;4.748;2022-07-17T09:01:23;30.90;35.20
15127;DHT22;7664;52.008;4.748;2022-07-17T09:03:56;31.10;36.30
15127;DHT22;7664;52.008;4.748;2022-07-17T09:06:27;31.10;32.00
15127;DHT22;7664;52.008;4.748;2022-07-17T09:09:03;30.90;34.20
15127;DHT22;7664;52.008;4.748;2022-07-17T09:11:42;30.70;30.90
15127;DHT22;7664;52.008;4.748;2022-07-17T09:14:11;30.10;28.90
15127;DHT22;7664;52.008;4.748;2022-07-17T09:16:48;29.70;31.70
15127;DHT22;7664;52.008;4.748;2022-07-17T09:19:27;29.80;32.30
15127;DHT22;7664;52.008;4.748;2022-07-17T09:22:12;30.10;34.20
15127;DHT22;7664;52.008;4.748;2022-07-17T09:24:42;30.40;32.20
15127;DHT22;7664;52.008;4.748;2022-07-17T09:27:11;30.60;35.20
15127;DHT22;7664;52.008;4.748;2022-07-17T09:29:51;30.60;34.10
15127;DHT22;7664;52.008;4.748;2022-07-17T09:32:21;30.20;30.00
15127;DHT22;7664;52.008;4.748;2022-07-17T09:34:51;30.00;33.30
15127;DHT22;7664;52.008;4.748;2022-07-17T09:37:23;30.20;33.80
15127;DHT22;7664;52.008;4.748;2022-07-17T09:39:52;30.20;33.20
15127;DHT22;7664;52.008;4.748;2022-07-17T09:42:23;30.30;34.60
15127;DHT22;7664;52.008;4.748;2022-07-17T09:44:55;30.60;35.00
15127;DHT22;7664;52.008;4.748;2022-07-17T09:47:24;30.20;31.10
15127;DHT22;7664;52.008;4.748;2022-07-17T09:49:52;29.80;33.90
15127;DHT22;7664;52.008;4.748;2022-07-17T09:52:25;29.90;34.50
15127;DHT22;7664;52.008;4.748;2022-07-17T09:54:54;29.90;35.10
15127;DHT22;7664;52.008;4.748;2022-07-17T09:57:43;30.10;34.40
15127;DHT22;7664;52.008;4.748;2022-07-17T10:00:15;30.00;35.20
15127;DHT22;7664;52.008;4.748;2022-07-17T10:02:49;30.00;32.90
15127;DHT22;7664;52.008;4.748;2022-07-17T10:05:18;29.80;34.00
15127;DHT22;7664;52.008;4.748;2022-07-17T10:07:48;29.80;34.50
15127;DHT22;7664;52.008;4.748;2022-07-17T10:10:17;30.10;35.30
15127;DHT22;7664;52.008;4.748;2022-07-17T10:12:48;30.20;34.80
15127;DHT22;7664;52.008;4.748;2022-07-17T10:15:17;30.10;33.70
15127;DHT22;7664;52.008;4.748;2022-07-17T10:17:47;30.20;34.90
15127;DHT22;7664;52.008;4.748;2022-07-17T10:20:24;30.20;35.10
15127;DHT22;7664;52.008;4.748;2022-07-17T10:22:53;30.20;34.20
15127;DHT22;7664;52.008;4.748;2022-07-17T10:25:22;30.10;34.00
15127;DHT22;7664;52.008;4.748;2022-07-17T10:27:52;29.80;34.20
15127;DHT22;7664;52.008;4.748;2022-07-17T10:30:24;29.80;35.00
15127;DHT22;7664;52.008;4.748;2022-07-17T10:32:56;29.90;34.40
15127;DHT22;7664;52.008;4.748;2022-07-17T10:35:25;29.80;33.40
15127;DHT22;7664;52.008;4.748;2022-07-17T10:37:57;29.70;34.30
15127;DHT22;7664;52.008;4.748;2022-07-17T10:40:27;29.80;35.00
15127;DHT22;7664;52.008;4.748;2022-07-17T10:42:57;29.70;33.60
15127;DHT22;7664;52.008;4.748;2022-07-17T10:45:29;29.60;33.00
15127;DHT22;7664;52.008;4.748;2022-07-17T10:48:02;29.30;33.40
15127;DHT22;7664;52.008;4.748;2022-07-17T10:50:33;29.30;33.30
15127;DHT22;7664;52.008;4.748;2022-07-17T10:53:07;29.20;32.70
15127;DHT22;7664;52.008;4.748;2022-07-17T10:55:37;28.60;30.60
15127;DHT22;7664;52.008;4.748;2022-07-17T10:58:14;28.20;32.10
15127;DHT22;7664;52.008;4.748;2022-07-17T11:00:42;28.20;32.80
15127;DHT22;7664;52.008;4.748;2022-07-17T11:03:11;28.20;33.90
15127;DHT22;7664;52.008;4.748;2022-07-17T11:05:39;28.10;33.40
15127;DHT22;7664;52.008;4.748;2022-07-17T11:08:08;28.00;34.30
15127;DHT22;7664;52.008;4.748;2022-07-17T11:10:38;28.10;34.30
15127;DHT22;7664;52.008;4.748;2022-07-17T11:13:10;28.00;33.60
15127;DHT22;7664;52.008;4.748;2022-07-17T11:15:42;28.20;35.40
15127;DHT22;7664;52.008;4.748;2022-07-17T11:18:15;28.30;34.70
15127;DHT22;7664;52.008;4.748;2022-07-17T11:20:48;28.30;34.70
15127;DHT22;7664;52.008;4.748;2022-07-17T11:23:18;28.30;33.90
15127;DHT22;7664;52.008;4.748;2022-07-17T11:25:55;28.10;33.90
15127;DHT22;7664;52.008;4.748;2022-07-17T11:28:34;27.90;35.00
15127;DHT22;7664;52.008;4.748;2022-07-17T11:31:04;28.00;35.30
15127;DHT22;7664;52.008;4.748;2022-07-17T11:33:33;28.00;35.30
15127;DHT22;7664;52.008;4.748;2022-07-17T11:36:00;27.90;34.00
15127;DHT22;7664;52.008;4.748;2022-07-17T11:38:30;27.70;33.70
15127;DHT22;7664;52.008;4.748;2022-07-17T11:40:57;27.40;34.20
15127;DHT22;7664;52.008;4.748;2022-07-17T11:43:28;27.50;36.00
15127;DHT22;7664;52.008;4.748;2022-07-17T11:45:56;27.60;35.40
15127;DHT22;7664;52.008;4.748;2022-07-17T11:48:24;27.70;35.80
15127;DHT22;7664;52.008;4.748;2022-07-17T11:50:53;27.70;35.50
15127;DHT22;7664;52.008;4.748;2022-07-17T11:53:33;27.80;36.40
15127;DHT22;7664;52.008;4.748;2022-07-17T11:56:01;27.80;36.10
15127;DHT22;7664;52.008;4.748;2022-07-17T11:58:40;27.80;36.20
15127;DHT22;7664;52.008;4.748;2022-07-17T12:01:09;27.80;35.50
15127;DHT22;7664;52.008;4.748;2022-07-17T12:03:37;27.80;35.90
15127;DHT22;7664;52.008;4.748;2022-07-17T12:06:05;27.70;35.90
15127;DHT22;7664;52.008;4.748;2022-07-17T12:08:35;27.70;35.80
15127;DHT22;7664;52.008;4.748;2022-07-17T12:11:05;27.80;36.30
15127;DHT22;7664;52.008;4.748;2022-07-17T12:13:42;27.80;36.20
15127;DHT22;7664;52.008;4.748;2022-07-17T12:16:23;27.80;36.20
15127;DHT22;7664;52.008;4.748;2022-07-17T12:19:02;27.80;34.60
15127;DHT22;7664;52.008;4.748;2022-07-17T12:21:32;27.80;35.20
15127;DHT22;7664;52.008;4.748;2022-07-17T12:24:04;27.90;36.30
15127;DHT22;7664;52.008;4.748;2022-07-17T12:26:33;28.00;37.00
15127;DHT22;7664;52.008;4.748;2022-07-17T12:29:01;28.00;35.40
15127;DHT22;7664;52.008;4.748;2022-07-17T12:31:29;28.00;35.80
15127;DHT22;7664;52.008;4.748;2022-07-17T12:33:58;28.00;36.30
15127;DHT22;7664;52.008;4.748;2022-07-17T12:36:26;28.10;35.90
15127;DHT22;7664;52.008;4.748;2022-07-17T12:38:54;28.10;35.40
15127;DHT22;7664;52.008;4.748;2022-07-17T12:41:23;28.00;34.50
15127;DHT22;7664;52.008;4.748;2022-07-17T12:43:52;28.00;36.10
15127;DHT22;7664;52.008;4.748;2022-07-17T12:46:19;27.90;35.00
15127;DHT22;7664;52.008;4.748;2022-07-17T12:48:47;28.10;35.60
15127;DHT22;7664;52.008;4.748;2022-07-17T12:51:15;28.20;35.60
15127;DHT22;7664;52.008;4.748;2022-07-17T12:53:44;28.10;35.70
15127;DHT22;7664;52.008;4.748;2022-07-17T12:56:13;28.10;35.50
15127;DHT22;7664;52.008;4.748;2022-07-17T12:58:43;28.10;36.00
15127;DHT22;7664;52.008;4.748;2022-07-17T13:01:11;28.10;35.30
15127;DHT22;7664;52.008;4.748;2022-07-17T13:03:39;28.10;35.30
15127;DHT22;7664;52.008;4.748;2022-07-17T13:06:07;27.90;35.10
15127;DHT22;7664;52.008;4.748;2022-07-17T13:08:35;27.90;35.90
15127;DHT22;7664;52.008;4.748;2022-07-17T13:11:04;27.90;35.50
15127;DHT22;7664;52.008;4.748;2022-07-17T13:13:37;28.00;36.00
15127;DHT22;7664;52.008;4.748;2022-07-17T13:16:12;28.10;36.00
15127;DHT22;7664;52.008;4.748;2022-07-17T13:18:41;28.20;35.60
15127;DHT22;7664;52.008;4.748;2022-07-17T13:21:09;28.20;35.50
15127;DHT22;7664;52.008;4.748;2022-07-17T13:23:39;28.00;34.30
15127;DHT22;7664;52.008;4.748;2022-07-17T13:26:07;27.80;35.40
15127;DHT22;7664;52.008;4.748;2022-07-17T13:28:44;27.90;35.70
15127;DHT22;7664;52.008;4.748;2022-07-17T13:31:14;28.10;35.80
15127;DHT22;7664;52.008;4.748;2022-07-17T13:33:42;28.20;34.80
15127;DHT22;7664;52.008;4.748;2022-07-17T13:36:10;28.10;34.40
15127;DHT22;7664;52.008;4.748;2022-07-17T13:38:38;27.90;34.80
15127;DHT22;7664;52.008;4.748;2022-07-17T13:41:06;27.90;35.70
15127;DHT22;7664;52.008;4.748;2022-07-17T13:43:34;27.80;34.90
15127;DHT22;7664;52.008;4.748;2022-07-17T13:46:02;27.50;34.80
15127;DHT22;7664;52.008;4.748;2022-07-17T13:48:31;27.50;35.20
15127;DHT22;7664;52.008;4.748;2022-07-17T13:50:59;27.40;35.70
15127;DHT22;7664;52.008;4.748;2022-07-17T13:53:28;27.60;37.10
15127;DHT22;7664;52.008;4.748;2022-07-17T13:55:57;27.70;36.80
15127;DHT22;7664;52.008;4.748;2022-07-17T13:58:25;27.90;37.20
15127;DHT22;7664;52.008;4.748;2022-07-17T14:00:53;27.90;36.40
15127;DHT22;7664;52.008;4.748;2022-07-17T14:03:21;27.90;36.90
15127;DHT22;7664;52.008;4.748;2022-07-17T14:05:51;28.00;36.80
15127;DHT22;7664;52.008;4.748;2022-07-17T14:08:18;28.00;37.10
15127;DHT22;7664;52.008;4.748;2022-07-17T14:10:46;28.10;35.00
15127;DHT22;7664;52.008;4.748;2022-07-17T14:13:14;28.10;36.10
15127;DHT22;7664;52.008;4.748;2022-07-17T14:15:42;28.20;36.10
15127;DHT22;7664;52.008;4.748;2022-07-17T14:18:10;28.00;34.30
15127;DHT22;7664;52.008;4.748;2022-07-17T14:20:38;27.90;35.00
15127;DHT22;7664;52.008;4.748;2022-07-17T14:23:08;27.80;35.10
15127;DHT22;7664;52.008;4.748;2022-07-17T14:25:36;27.90;36.50
15127;DHT22;7664;52.008;4.748;2022-07-17T14:28:09;28.10;35.90
15127;DHT22;7664;52.008;4.748;2022-07-17T14:30:37;27.80;34.80
15127;DHT22;7664;52.008;4.748;2022-07-17T14:33:05;27.50;34.50
15127;DHT22;7664;52.008;4.748;2022-07-17T14:35:33;27.30;34.40
15127;DHT22;7664;52.008;4.748;2022-07-17T14:38:01;27.10;34.00
15127;DHT22;7664;52.008;4.748;2022-07-17T14:40:32;27.10;34.70
15127;DHT22;7664;52.008;4.748;2022-07-17T14:43:00;27.00;34.30
15127;DHT22;7664;52.008;4.748;2022-07-17T14:45:28;26.90;34.20
15127;DHT22;7664;52.008;4.748;2022-07-17T14:47:56;26.90;34.40
15127;DHT22;7664;52.008;4.748;2022-07-17T14:50:24;27.10;34.50
15127;DHT22;7664;52.008;4.748;2022-07-17T14:52:52;27.10;34.70
15127;DHT22;7664;52.008;4.748;2022-07-17T14:55:20;27.20;35.60
15127;DHT22;7664;52.008;4.748;2022-07-17T14:57:53;27.40;33.70
15127;DHT22;7664;52.008;4.748;2022-07-17T15:00:21;27.20;34.00
15127;DHT22;7664;52.008;4.748;2022-07-17T15:02:49;27.10;34.00
15127;DHT22;7664;52.008;4.748;2022-07-17T15:05:17;27.20;34.30
15127;DHT22;7664;52.008;4.748;2022-07-17T15:07:45;27.30;34.80
15127;DHT22;7664;52.008;4.748;2022-07-17T15:10:13;27.50;35.30
15127;DHT22;7664;52.008;4.748;2022-07-17T15:12:41;27.70;35.40
15127;DHT22;7664;52.008;4.748;2022-07-17T15:15:10;27.80;35.00
15127;DHT22;7664;52.008;4.748;2022-07-17T15:17:39;27.80;33.80
15127;DHT22;7664;52.008;4.748;2022-07-17T15:20:08;27.60;33.70
15127;DHT22;7664;52.008;4.748;2022-07-17T15:22:37;27.40;33.50
15127;DHT22;7664;52.008;4.748;2022-07-17T15:25:05;27.40;34.70
15127;DHT22;7664;52.008;4.748;2022-07-17T15:27:33;27.60;35.00
15127;DHT22;7664;52.008;4.748;2022-07-17T15:30:01;27.70;33.80
15127;DHT22;7664;52.008;4.748;2022-07-17T15:32:31;27.60;32.70
15127;DHT22;7664;52.008;4.748;2022-07-17T15:34:59;27.40;32.80
15127;DHT22;7664;52.008;4.748;2022-07-17T15:37:29;27.50;33.50
15127;DHT22;7664;52.008;4.748;2022-07-17T15:39:58;27.70;34.00
15127;DHT22;7664;52.008;4.748;2022-07-17T15:42:26;27.80;34.50
15127;DHT22;7664;52.008;4.748;2022-07-17T15:44:55;27.90;34.40
15127;DHT22;7664;52.008;4.748;2022-07-17T15:47:27;27.90;33.80
15127;DHT22;7664;52.008;4.748;2022-07-17T15:49:56;27.90;33.80
15127;DHT22;7664;52.008;4.748;2022-07-17T15:52:24;28.00;34.70
15127;DHT22;7664;52.008;4.748;2022-07-17T15:54:52;28.10;34.80
15127;DHT22;7664;52.008;4.748;2022-07-17T15:57:20;28.10;34.70